sensor_id;sensor_type;location;lat;lon;timestamp;pressure;altitude;pressure_sealevel;temperature;humidity
61205;BME280;47068;55.780;37.520;2023-05-24T00:02:23;99870.47;;;17.42;70.78
61205;BME280;47068;55.780;37.520;2023-05-24T00:04:51;99905.66;;;17.54;69.57
61205;BME280;47068;55.780;37.520;2023-05-24T00:07:17;99910.84;;;17.55;69.43
61205;BME280;47068;55.780;37.520;2023-05-24T00:09:43;99920.97;;;17.53;69.87
61205;BME280;47068;55.780;37.520;2023-05-24T00:12:08;99914.75;;;17.53;70.22
61205;BME280;47068;55.780;37.520;2023-05-24T00:14:34;99915.41;;;17.55;70.13
61205;BME280;47068;55.780;37.520;2023-05-24T00:17:00;99907.94;;;17.57;68.83
61205;BME280;47068;55.780;37.520;2023-05-24T00:19:25;99914.13;;;17.57;69.74
61205;BME280;47068;55.780;37.520;2023-05-24T00:21:51;99902.16;;;17.60;69.69
61205;BME280;47068;55.780;37.520;2023-05-24T00:24:17;99906.66;;;17.46;68.07
61205;BME280;47068;55.780;37.520;2023-05-24T00:26:42;99911.41;;;17.44;67.62
61205;BME280;47068;55.780;37.520;2023-05-24T00:29:08;99904.38;;;17.43;68.29
61205;BME280;47068;55.780;37.520;2023-05-24T00:31:33;99895.06;;;17.32;67.84
61205;BME280;47068;55.780;37.520;2023-05-24T00:33:59;99899.22;;;17.35;68.43
61205;BME280;47068;55.780;37.520;2023-05-24T00:36:24;99891.72;;;17.30;68.15
61205;BME280;47068;55.780;37.520;2023-05-24T00:38:50;99891.31;;;17.27;68.15
61205;BME280;47068;55.780;37.520;2023-05-24T00:41:17;99897.09;;;17.30;68.40
61205;BME280;47068;55.780;37.520;2023-05-24T00:43:42;99898.34;;;17.28;68.15
61205;BME280;47068;55.780;37.520;2023-05-24T00:46:13;99888.00;;;17.31;68.64
61205;BME280;47068;55.780;37.520;2023-05-24T00:48:40;99891.13;;;17.35;69.39
61205;BME280;47068;55.780;37.520;2023-05-24T00:51:06;99877.88;;;17.27;69.50
61205;BME280;47068;55.780;37.520;2023-05-24T00:53:32;99890.91;;;17.37;68.91
61205;BME280;47068;55.780;37.520;2023-05-24T00:56:00;99894.88;;;17.41;69.63
61205;BME280;47068;55.780;37.520;2023-05-24T00:58:25;99886.38;;;17.44;70.57
61205;BME280;47068;55.780;37.520;2023-05-24T01:00:58;99890.94;;;17.43;69.30
61205;BME280;47068;55.780;37.520;2023-05-24T01:03:24;99887.63;;;17.41;70.26
61205;BME280;47068;55.780;37.520;2023-05-24T01:05:57;99871.25;;;17.36;70.42
61205;BME280;47068;55.780;37.520;2023-05-24T01:11:42;99869.16;;;17.25;72.80
61205;BME280;47068;55.780;37.520;2023-05-24T01:14:40;99867.69;;;17.16;74.26
61205;BME280;47068;55.780;37.520;2023-05-24T01:17:16;99870.16;;;17.11;74.65
61205;BME280;47068;55.780;37.520;2023-05-24T01:19:57;99862.28;;;17.09;74.79
61205;BME280;47068;55.780;37.520;2023-05-24T01:27:50;99832.47;;;16.91;75.87
61205;BME280;47068;55.780;37.520;2023-05-24T01:30:16;99861.03;;;16.99;76.41
61205;BME280;47068;55.780;37.520;2023-05-24T01:32:42;99862.88;;;16.98;76.71
61205;BME280;47068;55.780;37.520;2023-05-24T01:35:08;99859.16;;;16.99;76.40
61205;BME280;47068;55.780;37.520;2023-05-24T01:37:33;99856.03;;;16.96;76.75
61205;BME280;47068;55.780;37.520;2023-05-24T01:39:59;99844.44;;;16.88;76.60
61205;BME280;47068;55.780;37.520;2023-05-24T01:42:32;99863.09;;;17.03;75.88
61205;BME280;47068;55.780;37.520;2023-05-24T01:45:03;99860.59;;;17.02;76.08
61205;BME280;47068;55.780;37.520;2023-05-24T01:47:48;99859.38;;;17.04;76.06
61205;BME280;47068;55.780;37.520;2023-05-24T01:50:27;99863.94;;;17.04;76.48
61205;BME280;47068;55.780;37.520;2023-05-24T01:52:56;99862.28;;;17.03;76.66
61205;BME280;47068;55.780;37.520;2023-05-24T01:55:24;99851.69;;;16.94;77.15
61205;BME280;47068;55.780;37.520;2023-05-24T01:57:52;99857.91;;;16.95;77.51
61205;BME280;47068;55.780;37.520;2023-05-24T02:00:21;99861.03;;;16.99;75.75
61205;BME280;47068;55.780;37.520;2023-05-24T02:02:46;99852.78;;;17.07;74.37
61205;BME280;47068;55.780;37.520;2023-05-24T02:05:12;99861.47;;;17.09;75.22
61205;BME280;47068;55.780;37.520;2023-05-24T02:07:38;99848.84;;;17.09;72.98
61205;BME280;47068;55.780;37.520;2023-05-24T02:10:06;99860.25;;;17.18;73.93
61205;BME280;47068;55.780;37.520;2023-05-24T02:12:31;99863.38;;;17.15;74.88
61205;BME280;47068;55.780;37.520;2023-05-24T02:14:57;99853.63;;;17.14;75.06
61205;BME280;47068;55.780;37.520;2023-05-24T02:17:22;99855.72;;;17.18;75.12
61205;BME280;47068;55.780;37.520;2023-05-24T02:19:51;99862.31;;;17.22;73.02
61205;BME280;47068;55.780;37.520;2023-05-24T02:22:17;99853.66;;;17.27;71.41
61205;BME280;47068;55.780;37.520;2023-05-24T02:24:42;99840.22;;;17.27;69.85
61205;BME280;47068;55.780;37.520;2023-05-24T02:27:07;99837.72;;;17.25;70.28
61205;BME280;47068;55.780;37.520;2023-05-24T02:29:34;99844.59;;;17.28;71.43
61205;BME280;47068;55.780;37.520;2023-05-24T02:31:59;99853.66;;;17.27;71.51
61205;BME280;47068;55.780;37.520;2023-05-24T02:34:24;99829.22;;;17.15;69.79
61205;BME280;47068;55.780;37.520;2023-05-24T02:36:50;99851.56;;;17.22;69.08
61205;BME280;47068;55.780;37.520;2023-05-24T02:39:21;99847.28;;;17.28;69.06
61205;BME280;47068;55.780;37.520;2023-05-24T02:41:47;99847.06;;;17.36;69.06
61205;BME280;47068;55.780;37.520;2023-05-24T02:44:12;99843.34;;;17.37;69.56
61205;BME280;47068;55.780;37.520;2023-05-24T02:46:38;99835.50;;;17.42;69.06
61205;BME280;47068;55.780;37.520;2023-05-24T02:49:03;99835.50;;;17.42;69.39
61205;BME280;47068;55.780;37.520;2023-05-24T02:51:29;99833.63;;;17.43;68.71
61205;BME280;47068;55.780;37.520;2023-05-24T02:53:57;99838.78;;;17.44;67.99
61205;BME280;47068;55.780;37.520;2023-05-24T02:56:22;99835.69;;;17.41;67.85
61205;BME280;47068;55.780;37.520;2023-05-24T02:58:50;99822.22;;;17.21;67.69
61205;BME280;47068;55.780;37.520;2023-05-24T03:01:18;99845.81;;;17.32;67.65
61205;BME280;47068;55.780;37.520;2023-05-24T03:03:45;99829.28;;;17.28;67.39
61205;BME280;47068;55.780;37.520;2023-05-24T03:06:13;99840.25;;;17.40;67.31
61205;BME280;47068;55.780;37.520;2023-05-24T03:08:40;99823.69;;;17.37;67.38
61205;BME280;47068;55.780;37.520;2023-05-24T03:11:05;99843.97;;;17.52;67.23
61205;BME280;47068;55.780;37.520;2023-05-24T03:13:31;99823.28;;;17.33;66.74
61205;BME280;47068;55.780;37.520;2023-05-24T03:15:56;99819.31;;;17.22;67.12
61205;BME280;47068;55.780;37.520;2023-05-24T03:18:22;99832.16;;;17.27;67.23
61205;BME280;47068;55.780;37.520;2023-05-24T03:20:48;99828.66;;;17.33;67.34
61205;BME280;47068;55.780;37.520;2023-05-24T03:23:13;99831.34;;;17.33;66.83
61205;BME280;47068;55.780;37.520;2023-05-24T03:25:39;99820.78;;;17.25;67.60
61205;BME280;47068;55.780;37.520;2023-05-24T03:28:05;99841.09;;;17.41;67.28
61205;BME280;47068;55.780;37.520;2023-05-24T03:30:31;99832.19;;;17.53;67.42
61205;BME280;47068;55.780;37.520;2023-05-24T03:32:57;99844.66;;;17.67;67.47
61205;BME280;47068;55.780;37.520;2023-05-24T03:35:22;99838.84;;;17.77;66.98
61205;BME280;47068;55.780;37.520;2023-05-24T03:37:48;99825.63;;;17.69;65.55
61205;BME280;47068;55.780;37.520;2023-05-24T03:40:14;99837.63;;;17.86;65.67
61205;BME280;47068;55.780;37.520;2023-05-24T03:42:40;99818.75;;;17.99;66.44
61205;BME280;47068;55.780;37.520;2023-05-24T03:45:06;99820.03;;;17.97;64.95
61205;BME280;47068;55.780;37.520;2023-05-24T03:47:32;99827.47;;;18.08;64.41
61205;BME280;47068;55.780;37.520;2023-05-24T03:49:57;99815.19;;;18.19;64.53
61205;BME280;47068;55.780;37.520;2023-05-24T03:52:24;99818.09;;;18.30;64.19
61205;BME280;47068;55.780;37.520;2023-05-24T03:54:49;99815.19;;;18.38;63.87
61205;BME280;47068;55.780;37.520;2023-05-24T03:57:15;99796.34;;;18.38;64.22
61205;BME280;47068;55.780;37.520;2023-05-24T03:59:41;99807.25;;;18.50;63.48
61205;BME280;47068;55.780;37.520;2023-05-24T04:02:06;99805.44;;;18.44;63.34
61205;BME280;47068;55.780;37.520;2023-05-24T04:04:32;99807.91;;;18.45;63.12
61205;BME280;47068;55.780;37.520;2023-05-24T04:06:57;99812.28;;;18.33;64.08
61205;BME280;47068;55.780;37.520;2023-05-24T04:09:23;99807.34;;;18.24;63.66
61205;BME280;47068;55.780;37.520;2023-05-24T04:11:49;99787.25;;;18.13;64.09
61205;BME280;47068;55.780;37.520;2023-05-24T04:14:15;99803.81;;;18.23;63.88
61205;BME280;47068;55.780;37.520;2023-05-24T04:16:41;99805.88;;;18.21;64.34
61205;BME280;47068;55.780;37.520;2023-05-24T04:19:09;99805.25;;;18.26;64.13
61205;BME280;47068;55.780;37.520;2023-05-24T04:21:36;99808.16;;;18.31;63.95
61205;BME280;47068;55.780;37.520;2023-05-24T04:24:03;99777.16;;;18.02;64.05
61205;BME280;47068;55.780;37.520;2023-05-24T04:26:29;99797.19;;;18.19;64.39
61205;BME280;47068;55.780;37.520;2023-05-24T04:28:54;99809.41;;;18.28;64.61
61205;BME280;47068;55.780;37.520;2023-05-24T04:31:20;99814.13;;;18.33;65.11
61205;BME280;47068;55.780;37.520;2023-05-24T04:33:46;99809.59;;;18.27;64.24
61205;BME280;47068;55.780;37.520;2023-05-24T04:36:12;99803.84;;;18.17;64.48
61205;BME280;47068;55.780;37.520;2023-05-24T04:38:38;99805.72;;;18.09;64.60
61205;BME280;47068;55.780;37.520;2023-05-24T04:41:03;99808.22;;;18.11;64.54
61205;BME280;47068;55.780;37.520;2023-05-24T04:43:30;99790.78;;;18.07;64.63
61205;BME280;47068;55.780;37.520;2023-05-24T04:45:56;99810.66;;;18.13;64.23
61205;BME280;47068;55.780;37.520;2023-05-24T04:48:22;99812.13;;;18.15;64.42
61205;BME280;47068;55.780;37.520;2023-05-24T04:50:56;99812.28;;;18.27;64.03
61205;BME280;47068;55.780;37.520;2023-05-24T04:53:23;99816.44;;;18.29;64.19
61205;BME280;47068;55.780;37.520;2023-05-24T04:55:49;99804.81;;;18.35;63.87
61205;BME280;47068;55.780;37.520;2023-05-24T04:58:14;99794.38;;;18.72;62.88
61205;BME280;47068;55.780;37.520;2023-05-24T05:00:40;99798.97;;;19.03;61.82
61205;BME280;47068;55.780;37.520;2023-05-24T05:03:06;99801.91;;;19.33;61.04
61205;BME280;47068;55.780;37.520;2023-05-24T05:05:33;99808.38;;;19.63;60.33
61205;BME280;47068;55.780;37.520;2023-05-24T05:07:58;99794.47;;;19.84;60.10
61205;BME280;47068;55.780;37.520;2023-05-24T05:10:24;99808.31;;;20.13;58.73
61205;BME280;47068;55.780;37.520;2023-05-24T05:12:50;99819.06;;;20.19;58.22
61205;BME280;47068;55.780;37.520;2023-05-24T05:15:16;99810.19;;;20.37;57.62
61205;BME280;47068;55.780;37.520;2023-05-24T05:17:41;99820.41;;;20.53;56.01
61205;BME280;47068;55.780;37.520;2023-05-24T05:20:07;99819.19;;;20.67;55.74
61205;BME280;47068;55.780;37.520;2023-05-24T05:22:33;99808.91;;;21.06;55.21
61205;BME280;47068;55.780;37.520;2023-05-24T05:24:59;99784.53;;;21.24;53.80
61205;BME280;47068;55.780;37.520;2023-05-24T05:27:25;99809.34;;;21.63;54.45
61205;BME280;47068;55.780;37.520;2023-05-24T05:29:50;99829.97;;;21.87;53.92
61205;BME280;47068;55.780;37.520;2023-05-24T05:32:15;99820.69;;;21.83;52.29
61205;BME280;47068;55.780;37.520;2023-05-24T05:34:41;99807.91;;;21.48;53.32
61205;BME280;47068;55.780;37.520;2023-05-24T05:37:06;99819.25;;;21.69;52.28
61205;BME280;47068;55.780;37.520;2023-05-24T05:39:32;99819.19;;;21.98;51.75
61205;BME280;47068;55.780;37.520;2023-05-24T05:41:57;99810.97;;;22.05;52.29
61205;BME280;47068;55.780;37.520;2023-05-24T05:44:23;99822.06;;;21.85;51.68
61205;BME280;47068;55.780;37.520;2023-05-24T05:46:48;99809.97;;;21.76;52.32
61205;BME280;47068;55.780;37.520;2023-05-24T05:49:14;99806.03;;;21.60;51.49
61205;BME280;47068;55.780;37.520;2023-05-24T05:51:43;99796.72;;;21.15;52.87
61205;BME280;47068;55.780;37.520;2023-05-24T05:54:09;99802.59;;;21.12;53.50
61205;BME280;47068;55.780;37.520;2023-05-24T05:56:39;99795.63;;;21.34;52.27
61205;BME280;47068;55.780;37.520;2023-05-24T05:59:16;99775.09;;;21.56;50.99
61205;BME280;47068;55.780;37.520;2023-05-24T06:01:43;99801.00;;;21.76;50.75
61205;BME280;47068;55.780;37.520;2023-05-24T06:04:11;99800.34;;;22.04;50.13
61205;BME280;47068;55.780;37.520;2023-05-24T06:06:36;99795.16;;;22.14;50.03
61205;BME280;47068;55.780;37.520;2023-05-24T06:09:02;99780.53;;;22.15;49.97
61205;BME280;47068;55.780;37.520;2023-05-24T06:11:28;99794.53;;;22.47;50.24
61205;BME280;47068;55.780;37.520;2023-05-24T06:13:53;99794.19;;;22.31;49.17
61205;BME280;47068;55.780;37.520;2023-05-24T06:16:18;99798.41;;;21.92;50.10
61205;BME280;47068;55.780;37.520;2023-05-24T06:18:45;99780.50;;;21.56;50.47
61205;BME280;47068;55.780;37.520;2023-05-24T06:21:13;99785.44;;;21.48;50.41
61205;BME280;47068;55.780;37.520;2023-05-24T06:23:38;99787.25;;;21.24;51.09
61205;BME280;47068;55.780;37.520;2023-05-24T06:26:05;99791.44;;;20.90;52.05
61205;BME280;47068;55.780;37.520;2023-05-24T06:28:32;99783.97;;;20.74;52.88
61205;BME280;47068;55.780;37.520;2023-05-24T06:30:58;99782.22;;;20.61;53.25
61205;BME280;47068;55.780;37.520;2023-05-24T06:33:23;99779.09;;;20.64;53.36
61205;BME280;47068;55.780;37.520;2023-05-24T06:35:49;99768.97;;;20.90;52.52
61205;BME280;47068;55.780;37.520;2023-05-24T06:38:14;99778.19;;;21.00;52.31
61205;BME280;47068;55.780;37.520;2023-05-24T06:40:40;99786.09;;;21.02;53.02
61205;BME280;47068;55.780;37.520;2023-05-24T06:43:05;99782.53;;;21.19;52.81
61205;BME280;47068;55.780;37.520;2023-05-24T06:45:31;99771.47;;;21.21;52.55
61205;BME280;47068;55.780;37.520;2023-05-24T06:47:56;99779.22;;;21.17;53.08
61205;BME280;47068;55.780;37.520;2023-05-24T06:50:22;99776.81;;;21.09;52.62
61205;BME280;47068;55.780;37.520;2023-05-24T06:52:47;99779.66;;;20.84;52.58
61205;BME280;47068;55.780;37.520;2023-05-24T06:55:14;99779.09;;;20.64;54.12
61205;BME280;47068;55.780;37.520;2023-05-24T06:57:41;99774.28;;;20.48;56.51
61205;BME280;47068;55.780;37.520;2023-05-24T07:00:07;99772.78;;;20.70;54.28
61205;BME280;47068;55.780;37.520;2023-05-24T07:02:36;99784.88;;;20.98;54.08
61205;BME280;47068;55.780;37.520;2023-05-24T07:05:02;99784.25;;;21.14;53.70
61205;BME280;47068;55.780;37.520;2023-05-24T07:07:27;99783.03;;;21.28;53.59
61205;BME280;47068;55.780;37.520;2023-05-24T07:09:52;99779.94;;;21.25;53.41
61205;BME280;47068;55.780;37.520;2023-05-24T07:12:18;99787.41;;;21.11;53.49
61205;BME280;47068;55.780;37.520;2023-05-24T07:14:43;99776.56;;;21.11;53.91
61205;BME280;47068;55.780;37.520;2023-05-24T07:17:09;99782.88;;;21.23;53.89
61205;BME280;47068;55.780;37.520;2023-05-24T07:19:34;99779.00;;;21.31;53.81
61205;BME280;47068;55.780;37.520;2023-05-24T07:22:00;99789.78;;;21.60;52.12
61205;BME280;47068;55.780;37.520;2023-05-24T07:24:28;99781.25;;;22.33;50.91
61205;BME280;47068;55.780;37.520;2023-05-24T07:26:53;99782.13;;;22.51;50.69
61205;BME280;47068;55.780;37.520;2023-05-24T07:29:21;99786.97;;;22.49;50.54
61205;BME280;47068;55.780;37.520;2023-05-24T07:31:47;99791.22;;;22.45;50.53
61205;BME280;47068;55.780;37.520;2023-05-24T07:34:12;99784.22;;;21.97;50.76
61205;BME280;47068;55.780;37.520;2023-05-24T07:36:38;99791.22;;;21.75;51.40
61205;BME280;47068;55.780;37.520;2023-05-24T07:39:05;99792.16;;;21.69;52.19
61205;BME280;47068;55.780;37.520;2023-05-24T07:41:36;99782.34;;;21.44;51.66
61205;BME280;47068;55.780;37.520;2023-05-24T07:44:02;99788.34;;;21.35;52.31
61205;BME280;47068;55.780;37.520;2023-05-24T07:46:27;99798.34;;;21.34;52.67
61205;BME280;47068;55.780;37.520;2023-05-24T07:48:55;99778.06;;;21.25;52.80
61205;BME280;47068;55.780;37.520;2023-05-24T07:51:21;99777.28;;;21.36;52.51
61205;BME280;47068;55.780;37.520;2023-05-24T07:53:46;99798.53;;;21.63;52.33
61205;BME280;47068;55.780;37.520;2023-05-24T07:56:12;99777.31;;;21.59;52.65
61205;BME280;47068;55.780;37.520;2023-05-24T07:58:37;99800.53;;;21.79;52.13
61205;BME280;47068;55.780;37.520;2023-05-24T08:01:05;99799.13;;;21.88;51.49
61205;BME280;47068;55.780;37.520;2023-05-24T08:03:30;99806.78;;;21.91;51.16
61205;BME280;47068;55.780;37.520;2023-05-24T08:05:56;99814.78;;;21.86;51.03
61205;BME280;47068;55.780;37.520;2023-05-24T08:08:22;99816.09;;;21.83;51.37
61205;BME280;47068;55.780;37.520;2023-05-24T08:10:47;99805.34;;;21.65;51.37
61205;BME280;47068;55.780;37.520;2023-05-24T08:13:13;99813.56;;;21.58;50.89
61205;BME280;47068;55.780;37.520;2023-05-24T08:15:38;99799.69;;;21.55;51.69
61205;BME280;47068;55.780;37.520;2023-05-24T08:18:03;99816.56;;;21.92;51.44
61205;BME280;47068;55.780;37.520;2023-05-24T08:20:29;99810.56;;;22.13;50.33
61205;BME280;47068;55.780;37.520;2023-05-24T08:22:55;99806.00;;;22.25;49.87
61205;BME280;47068;55.780;37.520;2023-05-24T08:25:20;99805.63;;;22.45;49.81
61205;BME280;47068;55.780;37.520;2023-05-24T08:27:45;99812.69;;;22.34;49.58
61205;BME280;47068;55.780;37.520;2023-05-24T08:30:12;99805.16;;;22.13;49.85
61205;BME280;47068;55.780;37.520;2023-05-24T08:32:38;99806.53;;;21.92;50.06
61205;BME280;47068;55.780;37.520;2023-05-24T08:35:03;99807.25;;;21.88;51.17
61205;BME280;47068;55.780;37.520;2023-05-24T08:37:29;99809.78;;;22.13;51.16
61205;BME280;47068;55.780;37.520;2023-05-24T08:39:56;99808.22;;;22.28;50.66
61205;BME280;47068;55.780;37.520;2023-05-24T08:42:22;99814.00;;;22.32;50.07
61205;BME280;47068;55.780;37.520;2023-05-24T08:44:56;99810.38;;;22.26;51.05
61205;BME280;47068;55.780;37.520;2023-05-24T08:47:22;99810.13;;;22.16;50.71
61205;BME280;47068;55.780;37.520;2023-05-24T08:49:49;99810.13;;;22.05;51.02
61205;BME280;47068;55.780;37.520;2023-05-24T08:52:16;99798.69;;;22.03;52.05
61205;BME280;47068;55.780;37.520;2023-05-24T08:54:42;99810.97;;;22.05;52.38
61205;BME280;47068;55.780;37.520;2023-05-24T08:57:09;99795.47;;;21.94;52.58
61205;BME280;47068;55.780;37.520;2023-05-24T08:59:38;99798.53;;;21.86;52.87
61205;BME280;47068;55.780;37.520;2023-05-24T09:02:05;99811.72;;;21.94;53.19
61205;BME280;47068;55.780;37.520;2023-05-24T09:04:34;99811.66;;;22.00;52.98
61205;BME280;47068;55.780;37.520;2023-05-24T09:07:00;99809.41;;;22.09;52.77
61205;BME280;47068;55.780;37.520;2023-05-24T09:09:26;99808.34;;;22.10;52.60
61205;BME280;47068;55.780;37.520;2023-05-24T09:11:55;99802.00;;;22.16;52.70
61205;BME280;47068;55.780;37.520;2023-05-24T09:14:22;99794.31;;;22.36;52.87
61205;BME280;47068;55.780;37.520;2023-05-24T09:16:48;99798.13;;;22.75;49.23
61205;BME280;47068;55.780;37.520;2023-05-24T09:19:14;99799.03;;;23.21;49.87
61205;BME280;47068;55.780;37.520;2023-05-24T09:21:40;99790.88;;;23.38;48.06
61205;BME280;47068;55.780;37.520;2023-05-24T09:24:06;99782.13;;;23.02;47.78
61205;BME280;47068;55.780;37.520;2023-05-24T09:26:35;99797.66;;;23.07;48.82
61205;BME280;47068;55.780;37.520;2023-05-24T09:29:00;99794.19;;;23.23;48.71
61205;BME280;47068;55.780;37.520;2023-05-24T09:31:34;99812.44;;;23.28;47.33
61205;BME280;47068;55.780;37.520;2023-05-24T09:34:00;99809.13;;;23.26;47.88
61205;BME280;47068;55.780;37.520;2023-05-24T09:36:26;99805.31;;;23.10;45.48
61205;BME280;47068;55.780;37.520;2023-05-24T09:39:07;99807.41;;;22.91;46.93
61205;BME280;47068;55.780;37.520;2023-05-24T09:41:34;99797.44;;;23.08;46.71
61205;BME280;47068;55.780;37.520;2023-05-24T09:44:00;99807.56;;;23.13;46.13
61205;BME280;47068;55.780;37.520;2023-05-24T09:46:26;99807.50;;;23.25;45.66
61205;BME280;47068;55.780;37.520;2023-05-24T09:48:58;99812.00;;;23.19;45.90
61205;BME280;47068;55.780;37.520;2023-05-24T09:51:25;99798.13;;;22.75;46.52
61205;BME280;47068;55.780;37.520;2023-05-24T09:53:55;99790.00;;;22.64;46.46
61205;BME280;47068;55.780;37.520;2023-05-24T09:56:21;99789.72;;;22.89;46.78
61205;BME280;47068;55.780;37.520;2023-05-24T09:58:48;99796.47;;;23.60;45.66
61205;BME280;47068;55.780;37.520;2023-05-24T10:01:14;99800.25;;;23.75;45.25
61205;BME280;47068;55.780;37.520;2023-05-24T10:03:55;99800.00;;;23.77;44.35
61205;BME280;47068;55.780;37.520;2023-05-24T10:06:21;99807.09;;;23.61;45.01
61205;BME280;47068;55.780;37.520;2023-05-24T10:08:49;99802.31;;;23.68;45.17
61205;BME280;47068;55.780;37.520;2023-05-24T10:11:15;99798.19;;;23.82;45.25
61205;BME280;47068;55.780;37.520;2023-05-24T10:13:41;99809.06;;;23.99;45.36
61205;BME280;47068;55.780;37.520;2023-05-24T10:16:06;99800.97;;;24.04;45.57
61205;BME280;47068;55.780;37.520;2023-05-24T10:18:37;99805.00;;;24.02;44.37
61205;BME280;47068;55.780;37.520;2023-05-24T10:21:05;99814.75;;;23.98;44.63
61205;BME280;47068;55.780;37.520;2023-05-24T10:23:35;99819.13;;;23.99;45.23
61205;BME280;47068;55.780;37.520;2023-05-24T10:26:04;99814.31;;;23.89;44.25
61205;BME280;47068;55.780;37.520;2023-05-24T10:28:40;99814.81;;;23.69;44.71
61205;BME280;47068;55.780;37.520;2023-05-24T10:31:11;99817.19;;;23.49;44.95
61205;BME280;47068;55.780;37.520;2023-05-24T10:33:41;99813.66;;;23.48;45.50
61205;BME280;47068;55.780;37.520;2023-05-24T10:36:10;99814.41;;;23.32;45.10
61205;BME280;47068;55.780;37.520;2023-05-24T10:38:37;99839.53;;;23.11;45.98
61205;BME280;47068;55.780;37.520;2023-05-24T10:41:07;99827.03;;;23.10;46.74
61205;BME280;47068;55.780;37.520;2023-05-24T10:43:36;99829.59;;;22.88;45.32
61205;BME280;47068;55.780;37.520;2023-05-24T10:46:03;99831.75;;;22.63;46.66
61205;BME280;47068;55.780;37.520;2023-05-24T10:50:55;99829.22;;;22.33;47.53
61205;BME280;47068;55.780;37.520;2023-05-24T10:53:37;99825.44;;;22.22;47.93
61205;BME280;47068;55.780;37.520;2023-05-24T10:56:07;99827.22;;;22.17;48.22
61205;BME280;47068;55.780;37.520;2023-05-24T11:01:02;99835.22;;;22.12;48.67
61205;BME280;47068;55.780;37.520;2023-05-24T11:03:31;99835.81;;;22.25;48.40
61205;BME280;47068;55.780;37.520;2023-05-24T11:05:57;99835.78;;;22.49;48.26
61205;BME280;47068;55.780;37.520;2023-05-24T11:08:24;99839.78;;;22.58;47.98
61205;BME280;47068;55.780;37.520;2023-05-24T11:11:10;99820.94;;;22.39;47.24
61205;BME280;47068;55.780;37.520;2023-05-24T11:13:37;99834.75;;;22.26;47.83
61205;BME280;47068;55.780;37.520;2023-05-24T11:16:04;99829.53;;;22.13;48.89
61205;BME280;47068;55.780;37.520;2023-05-24T11:18:29;99836.03;;;22.24;48.57
61205;BME280;47068;55.780;37.520;2023-05-24T11:20:55;99841.44;;;22.35;48.68
61205;BME280;47068;55.780;37.520;2023-05-24T11:23:21;99846.41;;;22.38;49.56
61205;BME280;47068;55.780;37.520;2023-05-24T11:25:48;99841.44;;;22.47;49.39
61205;BME280;47068;55.780;37.520;2023-05-24T11:28:13;99826.94;;;22.53;49.02
61205;BME280;47068;55.780;37.520;2023-05-24T11:30:45;99853.69;;;22.73;49.03
61205;BME280;47068;55.780;37.520;2023-05-24T11:33:21;99856.13;;;22.86;49.37
61205;BME280;47068;55.780;37.520;2023-05-24T11:35:47;99851.72;;;22.97;48.90
61205;BME280;47068;55.780;37.520;2023-05-24T11:38:14;99853.38;;;23.09;48.79
61205;BME280;47068;55.780;37.520;2023-05-24T11:40:44;99849.78;;;23.21;49.24
61205;BME280;47068;55.780;37.520;2023-05-24T11:43:16;99843.31;;;23.38;49.74
61205;BME280;47068;55.780;37.520;2023-05-24T11:45:44;99847.31;;;23.47;48.25
61205;BME280;47068;55.780;37.520;2023-05-24T11:48:10;99848.72;;;23.38;48.18
61205;BME280;47068;55.780;37.520;2023-05-24T11:50:40;99852.50;;;23.37;48.56
61205;BME280;47068;55.780;37.520;2023-05-24T11:53:11;99824.94;;;23.29;47.84
61205;BME280;47068;55.780;37.520;2023-05-24T11:55:38;99837.88;;;23.38;48.48
61205;BME280;47068;55.780;37.520;2023-05-24T12:00:46;99844.72;;;23.41;47.53
61205;BME280;47068;55.780;37.520;2023-05-24T12:03:12;99841.41;;;23.50;48.08
61205;BME280;47068;55.780;37.520;2023-05-24T12:05:38;99839.84;;;23.54;48.40
61205;BME280;47068;55.780;37.520;2023-05-24T12:08:07;99835.31;;;23.60;48.05
61205;BME280;47068;55.780;37.520;2023-05-24T12:10:39;99829.81;;;23.72;47.67
61205;BME280;47068;55.780;37.520;2023-05-24T12:13:06;99831.78;;;23.76;46.76
61205;BME280;47068;55.780;37.520;2023-05-24T12:15:42;99835.56;;;23.75;47.37
61205;BME280;47068;55.780;37.520;2023-05-24T12:18:20;99828.31;;;23.81;47.09
61205;BME280;47068;55.780;37.520;2023-05-24T12:20:49;99825.38;;;23.82;47.52
61205;BME280;47068;55.780;37.520;2023-05-24T12:23:19;99834.50;;;23.76;47.59
61205;BME280;47068;55.780;37.520;2023-05-24T12:25:45;99824.53;;;23.65;47.85
61205;BME280;47068;55.780;37.520;2023-05-24T12:28:12;99830.47;;;23.62;47.36
61205;BME280;47068;55.780;37.520;2023-05-24T12:30:37;99823.78;;;23.53;47.95
61205;BME280;47068;55.780;37.520;2023-05-24T12:33:10;99821.88;;;23.53;48.12
61205;BME280;47068;55.780;37.520;2023-05-24T12:35:42;99817.78;;;23.51;48.49
61205;BME280;47068;55.780;37.520;2023-05-24T12:38:08;99812.84;;;23.48;48.50
61205;BME280;47068;55.780;37.520;2023-05-24T12:40:39;99798.13;;;23.32;48.17
61205;BME280;47068;55.780;37.520;2023-05-24T12:43:05;99806.22;;;23.44;48.85
61205;BME280;47068;55.780;37.520;2023-05-24T12:45:30;99810.00;;;23.43;48.27
61205;BME280;47068;55.780;37.520;2023-05-24T12:47:58;99810.84;;;23.43;48.99
61205;BME280;47068;55.780;37.520;2023-05-24T12:50:25;99810.31;;;23.46;49.69
61205;BME280;47068;55.780;37.520;2023-05-24T12:52:51;99788.09;;;23.33;48.70
61205;BME280;47068;55.780;37.520;2023-05-24T12:55:25;99803.75;;;23.42;48.84
61205;BME280;47068;55.780;37.520;2023-05-24T12:57:51;99801.06;;;23.31;49.60
61205;BME280;47068;55.780;37.520;2023-05-24T13:00:23;99805.22;;;23.33;49.96
61205;BME280;47068;55.780;37.520;2023-05-24T13:02:51;99816.06;;;23.33;50.21
61205;BME280;47068;55.780;37.520;2023-05-24T13:05:20;99825.28;;;23.32;49.89
61205;BME280;47068;55.780;37.520;2023-05-24T13:07:45;99819.75;;;23.27;49.44